createdAt,value
2022-08-22T00:02:56.261Z,18.06
2022-08-22T00:03:31.688Z,13.98
2022-08-22T00:04:06.904Z,14.03
2022-08-22T00:05:06.939Z,14.04
2022-08-22T00:06:07.858Z,14.04
2022-08-22T00:07:07.060Z,14.03
2022-08-22T00:08:06.890Z,14.05
2022-08-22T00:09:06.824Z,14.04
2022-08-22T00:10:06.874Z,14.04
2022-08-22T00:11:06.884Z,14.05
2022-08-22T00:12:06.836Z,14.07
2022-08-22T00:13:06.836Z,14.11
2022-08-22T00:14:06.858Z,14.07
2022-08-22T00:15:06.799Z,14.04
2022-08-22T00:16:06.742Z,14.03
2022-08-22T00:17:06.815Z,14.00
2022-08-22T00:18:06.789Z,13.94
2022-08-22T00:19:06.741Z,13.93
2022-08-22T00:20:06.888Z,13.89
2022-08-22T00:21:08.852Z,13.82
2022-08-22T00:22:06.703Z,13.75
2022-08-22T00:23:06.740Z,13.68
2022-08-22T00:24:07.179Z,13.60
2022-08-22T00:25:06.862Z,13.55
2022-08-22T00:26:06.768Z,13.52
2022-08-22T00:27:06.693Z,13.50
2022-08-22T00:28:06.703Z,13.50
2022-08-22T00:29:07.208Z,13.50
2022-08-22T00:30:07.575Z,13.52
2022-08-22T00:31:06.583Z,13.55
2022-08-22T00:32:06.719Z,13.52
2022-08-22T00:33:06.754Z,13.50
2022-08-22T00:34:06.797Z,13.49
2022-08-22T00:35:06.614Z,13.45
2022-08-22T00:36:06.556Z,13.42
2022-08-22T00:37:06.587Z,13.39
2022-08-22T00:38:06.658Z,13.33
2022-08-22T00:39:06.616Z,13.30
2022-08-22T00:40:06.751Z,13.30
2022-08-22T00:41:06.496Z,13.30
2022-08-22T00:42:06.455Z,13.31
2022-08-22T00:43:06.579Z,13.33
2022-08-22T00:44:07.481Z,13.33
2022-08-22T00:45:06.502Z,13.27
2022-08-22T00:46:06.462Z,13.28
2022-08-22T00:47:06.543Z,13.33
2022-08-22T00:48:06.404Z,13.33
2022-08-22T00:49:06.655Z,13.36
2022-08-22T00:50:06.612Z,13.28
2022-08-22T00:51:06.424Z,13.26
2022-08-22T00:52:06.412Z,13.26
2022-08-22T00:53:06.312Z,13.23
2022-08-22T00:54:06.886Z,13.21
2022-08-22T00:55:06.312Z,13.17
2022-08-22T00:56:06.341Z,13.17
2022-08-22T00:57:06.295Z,13.09
2022-08-22T00:58:06.276Z,13.06
2022-08-22T00:59:23.342Z,13.06
2022-08-22T01:00:06.243Z,13.09
2022-08-22T01:01:06.280Z,13.09
2022-08-22T01:02:06.292Z,13.02
2022-08-22T01:03:06.223Z,13.03
2022-08-22T01:04:06.219Z,13.05
2022-08-22T01:05:06.208Z,12.95
2022-08-22T01:06:06.438Z,12.94
2022-08-22T01:07:06.196Z,12.90
2022-08-22T01:08:06.238Z,12.87
2022-08-22T01:09:06.217Z,12.84
2022-08-22T01:10:06.160Z,12.81
2022-08-22T01:11:07.036Z,12.84
2022-08-22T01:12:06.117Z,12.86
2022-08-22T01:13:06.113Z,12.87
2022-08-22T01:14:06.961Z,12.90
2022-08-22T01:15:06.095Z,12.90
2022-08-22T01:16:06.098Z,12.88
2022-08-22T01:17:06.049Z,12.90
2022-08-22T01:18:06.063Z,12.90
2022-08-22T01:19:06.120Z,12.90
2022-08-22T01:20:06.060Z,12.88
2022-08-22T01:21:06.021Z,12.84
2022-08-22T01:22:05.993Z,12.84
2022-08-22T01:23:05.973Z,12.81
2022-08-22T01:24:05.990Z,12.76
2022-08-22T01:25:05.978Z,12.72
2022-08-22T01:26:06.003Z,12.70
2022-08-22T01:27:05.983Z,12.69
2022-08-22T01:28:05.938Z,12.66
2022-08-22T01:29:05.945Z,12.68
2022-08-22T01:30:05.956Z,12.72
2022-08-22T01:31:05.907Z,12.75
2022-08-22T01:32:05.938Z,12.80
2022-08-22T01:33:05.890Z,12.83
2022-08-22T01:34:05.893Z,12.88
2022-08-22T01:35:05.892Z,12.93
2022-08-22T01:36:05.851Z,12.99
2022-08-22T01:37:05.823Z,12.99
2022-08-22T01:38:05.879Z,12.99
2022-08-22T01:39:05.817Z,12.99
2022-08-22T01:40:05.880Z,13.01
2022-08-22T01:41:05.797Z,13.08
2022-08-22T01:42:05.796Z,13.13
2022-08-22T01:43:05.755Z,13.20
2022-08-22T01:44:05.783Z,13.21
2022-08-22T01:45:05.741Z,13.21
2022-08-22T01:46:05.716Z,13.23
2022-08-22T01:47:05.720Z,13.24
2022-08-22T01:48:05.718Z,13.28
2022-08-22T01:49:05.689Z,13.28
2022-08-22T01:50:05.735Z,13.26
2022-08-22T01:51:05.669Z,13.27
2022-08-22T01:52:05.751Z,13.23
2022-08-22T01:53:05.681Z,13.23
2022-08-22T01:54:06.213Z,13.28
2022-08-22T01:55:05.622Z,13.31
2022-08-22T01:56:05.647Z,13.37
2022-08-22T01:57:05.595Z,13.39
2022-08-22T01:58:06.217Z,13.39
2022-08-22T01:59:05.615Z,13.40
2022-08-22T02:00:05.574Z,13.39
2022-08-22T02:01:05.594Z,13.39
2022-08-22T02:02:05.600Z,13.40
2022-08-22T02:03:05.541Z,13.36
2022-08-22T02:04:05.547Z,13.31
2022-08-22T02:05:05.541Z,13.27
2022-08-22T02:06:05.494Z,13.24
2022-08-22T02:07:05.486Z,13.20
2022-08-22T02:08:05.521Z,13.23
2022-08-22T02:09:05.510Z,13.27
2022-08-22T02:10:05.463Z,13.31
2022-08-22T02:11:05.494Z,13.30
2022-08-22T02:12:05.450Z,13.28
2022-08-22T02:13:05.450Z,13.24
2022-08-22T02:14:06.170Z,13.21
2022-08-22T02:15:05.410Z,13.20
2022-08-22T02:16:05.449Z,13.21
2022-08-22T02:17:05.386Z,13.23
2022-08-22T02:18:05.455Z,13.23
2022-08-22T02:19:05.401Z,13.24
2022-08-22T02:20:05.449Z,13.27
2022-08-22T02:21:05.354Z,13.30
2022-08-22T02:22:06.108Z,13.39
2022-08-22T02:23:05.316Z,13.46
2022-08-22T02:24:05.299Z,13.52
2022-08-22T02:25:09.002Z,13.58
2022-08-22T02:26:05.301Z,13.58
2022-08-22T02:27:05.264Z,13.55
2022-08-22T02:28:05.264Z,13.52
2022-08-22T02:29:05.317Z,13.50
2022-08-22T02:30:06.024Z,13.49
2022-08-22T02:31:08.857Z,13.54
2022-08-22T02:32:05.250Z,13.49
2022-08-22T02:33:05.219Z,13.49
2022-08-22T02:34:05.211Z,13.49
2022-08-22T02:35:05.199Z,13.45
2022-08-22T02:36:05.699Z,13.45
2022-08-22T02:37:05.164Z,13.46
2022-08-22T02:38:05.169Z,13.46
2022-08-22T02:39:05.713Z,13.46
2022-08-22T02:40:05.674Z,13.46
2022-08-22T02:41:05.353Z,13.47
2022-08-22T02:42:05.178Z,13.49
2022-08-22T02:43:05.084Z,13.49
2022-08-22T02:44:05.098Z,13.52
2022-08-22T02:45:05.069Z,13.52
2022-08-22T02:46:05.042Z,13.52
2022-08-22T02:47:05.038Z,13.54
2022-08-22T02:48:05.037Z,13.54
2022-08-22T02:49:05.022Z,13.50
2022-08-22T02:50:05.058Z,13.50
2022-08-22T02:51:05.691Z,13.50
2022-08-22T02:52:04.975Z,13.50
2022-08-22T02:53:04.986Z,13.50
2022-08-22T02:54:05.070Z,13.49
2022-08-22T02:55:04.953Z,13.50
2022-08-22T02:56:05.204Z,13.52
2022-08-22T02:57:04.934Z,13.52
2022-08-22T02:58:04.932Z,13.49
2022-08-22T02:59:04.908Z,13.47
2022-08-22T03:00:04.904Z,13.46
2022-08-22T03:01:05.090Z,13.45
2022-08-22T03:02:05.196Z,13.42
2022-08-22T03:03:04.894Z,13.39
2022-08-22T03:04:05.009Z,13.37
2022-08-22T03:05:04.856Z,13.39
2022-08-22T03:06:04.978Z,13.45
2022-08-22T03:07:04.838Z,13.46
2022-08-22T03:08:04.885Z,13.46
2022-08-22T03:09:04.812Z,13.45
2022-08-22T03:10:04.796Z,13.43
2022-08-22T03:11:05.658Z,13.43
2022-08-22T03:12:04.769Z,13.39
2022-08-22T03:13:04.756Z,13.39
2022-08-22T03:14:04.819Z,13.39
2022-08-22T03:15:04.740Z,13.39
2022-08-22T03:16:04.728Z,13.40
2022-08-22T03:17:04.704Z,13.43
2022-08-22T03:18:04.704Z,13.45
2022-08-22T03:19:04.670Z,13.39
2022-08-22T03:20:04.717Z,13.37
2022-08-22T03:21:04.650Z,13.33
2022-08-22T03:22:04.639Z,13.31
2022-08-22T03:23:04.883Z,13.31
2022-08-22T03:24:04.672Z,13.39
2022-08-22T03:25:04.617Z,13.40
2022-08-22T03:26:07.696Z,13.37
2022-08-22T03:27:04.618Z,13.31
2022-08-22T03:28:04.707Z,13.31
2022-08-22T03:29:04.554Z,13.30
2022-08-22T03:30:04.540Z,13.28
2022-08-22T03:31:04.626Z,13.26
2022-08-22T03:32:04.780Z,13.23
2022-08-22T03:33:04.538Z,13.23
2022-08-22T03:34:04.758Z,13.19
2022-08-22T03:35:04.668Z,13.19
2022-08-22T03:36:04.539Z,13.16
2022-08-22T03:37:04.475Z,13.12
2022-08-22T03:38:04.579Z,13.09
2022-08-22T03:39:17.193Z,13.08
2022-08-22T03:40:04.510Z,13.05
2022-08-22T03:41:04.557Z,13.03
2022-08-22T03:42:04.410Z,13.03
2022-08-22T03:43:04.409Z,13.02
2022-08-22T03:44:04.475Z,13.01
2022-08-22T03:45:06.932Z,13.01
2022-08-22T03:46:04.406Z,12.95
2022-08-22T03:47:04.359Z,12.91
2022-08-22T03:48:04.360Z,12.84
2022-08-22T03:49:04.390Z,12.80
2022-08-22T03:50:04.448Z,12.76
2022-08-22T03:51:04.315Z,12.78
2022-08-22T03:52:04.297Z,12.76
2022-08-22T03:53:04.302Z,12.75
2022-08-22T03:54:04.328Z,12.72
2022-08-22T03:55:04.306Z,12.72
2022-08-22T03:56:04.329Z,12.70
2022-08-22T03:57:04.270Z,12.69
2022-08-22T03:58:05.193Z,12.66
2022-08-22T03:59:10.224Z,12.69
2022-08-22T04:00:05.506Z,12.66
2022-08-22T04:01:04.261Z,12.66
2022-08-22T04:02:04.238Z,12.57
2022-08-22T04:03:05.167Z,12.48
2022-08-22T04:04:04.175Z,12.45
2022-08-22T04:05:04.154Z,12.45
2022-08-22T04:06:04.401Z,12.44
2022-08-22T04:07:04.150Z,12.43
2022-08-22T04:08:04.180Z,12.40
2022-08-22T04:09:04.249Z,12.40
2022-08-22T04:10:04.101Z,12.40
2022-08-22T04:11:04.138Z,12.45
2022-08-22T04:12:04.091Z,12.44
2022-08-22T04:13:04.106Z,12.44
2022-08-22T04:14:04.135Z,12.44
2022-08-22T04:15:04.054Z,12.44
2022-08-22T04:16:04.043Z,12.44
2022-08-22T04:17:04.701Z,12.45
2022-08-22T04:18:04.010Z,12.51
2022-08-22T04:19:04.006Z,12.55
2022-08-22T04:20:04.167Z,12.57
2022-08-22T04:21:03.992Z,12.58
2022-08-22T04:22:03.970Z,12.57
2022-08-22T04:23:03.960Z,12.53
2022-08-22T04:24:03.986Z,12.53
2022-08-22T04:25:07.846Z,12.53
2022-08-22T04:26:04.423Z,12.50
2022-08-22T04:27:03.916Z,12.48
2022-08-22T04:28:03.960Z,12.50
2022-08-22T04:29:03.935Z,12.47
2022-08-22T04:30:03.874Z,12.51
2022-08-22T04:31:03.888Z,12.53
2022-08-22T04:32:03.908Z,12.55
2022-08-22T04:33:04.697Z,12.61
2022-08-22T04:34:03.836Z,12.66
2022-08-22T04:35:03.826Z,12.69
2022-08-22T04:36:04.648Z,12.73
2022-08-22T04:37:04.004Z,12.72
2022-08-22T04:38:04.523Z,12.72
2022-08-22T04:39:03.850Z,12.73
2022-08-22T04:40:03.921Z,12.78
2022-08-22T04:41:04.759Z,12.80
2022-08-22T04:42:29.199Z,12.84
2022-08-22T04:43:04.667Z,12.87
2022-08-22T04:44:03.769Z,12.87
2022-08-22T04:45:03.741Z,12.88
2022-08-22T04:46:05.016Z,12.88
2022-08-22T04:47:03.685Z,12.91
2022-08-22T04:48:03.674Z,12.93
2022-08-22T04:49:03.752Z,12.94
2022-08-22T04:50:03.723Z,12.95
2022-08-22T04:51:03.845Z,12.98
2022-08-22T04:52:03.680Z,12.99
2022-08-22T04:53:03.626Z,13.02
2022-08-22T04:54:03.607Z,13.03
2022-08-22T04:55:03.642Z,13.06
2022-08-22T04:56:07.347Z,13.09
2022-08-22T04:57:03.600Z,13.11
2022-08-22T04:58:06.738Z,13.16
2022-08-22T04:59:03.556Z,13.19
2022-08-22T05:00:03.575Z,13.23
2022-08-22T05:01:03.596Z,13.26
2022-08-22T05:02:03.711Z,13.31
2022-08-22T05:03:03.513Z,13.31
2022-08-22T05:04:03.515Z,13.33
2022-08-22T05:05:03.501Z,13.33
2022-08-22T05:06:03.483Z,13.37
2022-08-22T05:07:03.518Z,13.39
2022-08-22T05:08:03.545Z,13.42
2022-08-22T05:09:03.458Z,13.46
2022-08-22T05:10:11.668Z,13.50
2022-08-22T05:11:03.462Z,13.55
2022-08-22T05:12:03.431Z,13.61
2022-08-22T05:13:04.107Z,13.62
2022-08-22T05:14:03.437Z,13.67
2022-08-22T05:15:03.389Z,13.68
2022-08-22T05:16:03.373Z,13.71
2022-08-22T05:17:03.623Z,13.75
2022-08-22T05:18:03.368Z,13.79
2022-08-22T05:19:03.347Z,13.83
2022-08-22T05:20:03.363Z,13.89
2022-08-22T05:21:03.353Z,13.93
2022-08-22T05:22:03.287Z,13.93
2022-08-22T05:23:05.837Z,13.98
2022-08-22T05:24:03.272Z,14.01
2022-08-22T05:25:03.266Z,14.05
2022-08-22T05:26:03.330Z,14.11
2022-08-22T05:27:03.538Z,14.15
2022-08-22T05:28:03.234Z,14.18
2022-08-22T05:31:30.303Z,14.37
2022-08-22T05:32:31.259Z,14.38
2022-08-22T05:33:31.350Z,14.41
2022-08-22T05:34:31.244Z,14.45
2022-08-22T05:35:31.224Z,14.51
2022-08-22T05:36:31.282Z,14.53
2022-08-22T05:37:31.355Z,14.62
2022-08-22T05:38:31.208Z,14.68
2022-08-22T05:39:31.358Z,14.74
2022-08-22T05:40:31.414Z,14.82
2022-08-22T05:41:31.187Z,14.89
2022-08-22T05:42:31.797Z,14.93
2022-08-22T05:43:31.210Z,14.93
2022-08-22T05:44:31.142Z,14.97
2022-08-22T05:45:31.113Z,15.04
2022-08-22T05:46:31.153Z,15.08
2022-08-22T05:47:31.180Z,15.14
2022-08-22T05:48:31.161Z,15.18
2022-08-22T05:49:31.124Z,15.25
2022-08-22T05:50:31.090Z,15.27
2022-08-22T05:51:31.042Z,15.35
2022-08-22T05:52:31.070Z,15.39
2022-08-22T05:53:31.735Z,15.47
2022-08-22T05:54:33.531Z,15.52
2022-08-22T05:55:31.097Z,15.65
2022-08-22T05:56:31.031Z,15.72
2022-08-22T05:57:30.983Z,15.80
2022-08-22T05:58:30.974Z,15.84
2022-08-22T05:59:30.966Z,15.94
2022-08-22T06:00:31.094Z,16.00
2022-08-22T06:01:31.355Z,16.08
2022-08-22T06:02:30.933Z,16.13
2022-08-22T06:03:30.913Z,16.22
2022-08-22T06:04:31.201Z,16.29
2022-08-22T06:05:31.265Z,16.37
2022-08-22T06:06:30.949Z,16.41
2022-08-22T06:07:30.871Z,16.47
2022-08-22T06:08:30.976Z,16.51
2022-08-22T06:09:35.310Z,16.55
2022-08-22T06:10:30.907Z,16.61
2022-08-22T06:11:34.087Z,16.65
2022-08-22T06:12:31.360Z,16.72
2022-08-22T06:13:31.116Z,16.76
2022-08-22T06:14:31.080Z,16.82
2022-08-22T06:15:31.147Z,16.84
2022-08-22T06:16:31.942Z,16.89
2022-08-22T06:17:31.282Z,16.94
2022-08-22T06:18:31.267Z,16.97
2022-08-22T06:19:30.932Z,16.99
2022-08-22T06:20:31.220Z,17.02
2022-08-22T06:21:38.679Z,17.04
2022-08-22T06:22:30.940Z,17.09
2022-08-22T06:23:31.089Z,17.10
2022-08-22T06:24:31.254Z,17.13
2022-08-22T06:25:30.855Z,17.20
2022-08-22T06:26:30.994Z,17.22
2022-08-22T06:27:31.389Z,17.27
2022-08-22T06:28:31.135Z,17.30
2022-08-22T06:29:31.101Z,17.35
2022-08-22T06:30:31.203Z,17.37
2022-08-22T06:31:30.932Z,17.42
2022-08-22T06:32:58.309Z,17.44
2022-08-22T06:33:31.044Z,17.47
2022-08-22T06:34:30.951Z,17.52
2022-08-22T06:35:31.029Z,17.57
2022-08-22T06:36:30.823Z,17.60
2022-08-22T06:37:30.854Z,17.69
2022-08-22T06:38:30.905Z,17.73
2022-08-22T06:39:30.574Z,17.78
2022-08-22T06:40:30.663Z,17.79
2022-08-22T06:41:30.784Z,17.87
2022-08-22T06:42:31.022Z,17.88
2022-08-22T06:43:30.868Z,17.91
2022-08-22T06:44:30.747Z,17.95
2022-08-22T06:45:30.863Z,18.02
2022-08-22T06:46:30.936Z,18.06
2022-08-22T06:47:30.865Z,18.11
2022-08-22T06:48:30.910Z,18.13
2022-08-22T06:49:30.750Z,18.18
2022-08-22T06:50:30.674Z,18.23
2022-08-22T06:51:30.645Z,18.27
2022-08-22T06:52:31.549Z,18.33
2022-08-22T06:53:30.673Z,18.37
2022-08-22T06:54:34.284Z,18.43
2022-08-22T06:55:30.428Z,18.49
2022-08-22T06:56:30.707Z,18.55
2022-08-22T06:57:30.527Z,18.61
2022-08-22T06:58:33.839Z,18.66
2022-08-22T06:59:30.647Z,18.67
2022-08-22T07:00:30.431Z,18.71
2022-08-22T07:01:30.613Z,18.79
2022-08-22T07:02:30.752Z,18.82
2022-08-22T07:03:30.258Z,18.85
2022-08-22T07:04:30.568Z,18.91
2022-08-22T07:05:30.196Z,18.92
2022-08-22T07:06:30.293Z,18.98
2022-08-22T07:07:30.177Z,18.98
2022-08-22T07:08:30.200Z,19.01
2022-08-22T07:09:30.164Z,19.05
2022-08-22T07:10:30.172Z,19.07
2022-08-22T07:11:30.144Z,19.11
2022-08-22T07:12:30.169Z,19.15
2022-08-22T07:13:30.139Z,19.17
2022-08-22T07:14:30.104Z,19.22
2022-08-22T07:15:30.110Z,19.26
2022-08-22T07:16:30.083Z,19.30
2022-08-22T07:17:30.068Z,19.35
2022-08-22T07:18:30.087Z,19.39
2022-08-22T07:19:30.047Z,19.42
2022-08-22T07:20:30.036Z,19.47
2022-08-22T07:21:30.023Z,19.52
2022-08-22T07:22:30.016Z,19.59
2022-08-22T07:23:30.005Z,19.63
2022-08-22T07:24:30.032Z,19.67
2022-08-22T07:25:29.967Z,19.72
2022-08-22T07:26:29.970Z,19.81
2022-08-22T07:27:29.958Z,19.87
2022-08-22T07:28:37.016Z,19.93
2022-08-22T07:29:29.935Z,19.99
2022-08-22T07:30:29.958Z,20.00
2022-08-22T07:31:31.783Z,20.00
2022-08-22T07:32:29.908Z,20.00
2022-08-22T07:33:29.894Z,20.03
2022-08-22T07:34:29.873Z,20.02
2022-08-22T07:35:29.864Z,20.03
2022-08-22T07:36:31.980Z,20.08
2022-08-22T07:37:29.866Z,20.14
2022-08-22T07:38:29.841Z,20.17
2022-08-22T07:39:29.828Z,20.19
2022-08-22T07:40:29.807Z,20.22
2022-08-22T07:41:29.801Z,20.29
2022-08-22T07:42:30.339Z,20.33
2022-08-22T07:43:29.781Z,20.33
2022-08-22T07:44:29.765Z,20.36
2022-08-22T07:45:29.754Z,20.42
2022-08-22T07:46:29.735Z,20.42
2022-08-22T07:47:29.735Z,20.46
2022-08-22T07:48:29.751Z,20.48
2022-08-22T07:49:29.715Z,20.42
2022-08-22T07:50:29.710Z,20.46
2022-08-22T07:51:29.680Z,20.44
2022-08-22T07:52:29.663Z,20.46
2022-08-22T07:53:29.664Z,20.48
2022-08-22T07:54:29.679Z,20.48
2022-08-22T07:55:29.642Z,20.49
2022-08-22T07:56:29.629Z,20.49
2022-08-22T07:57:29.624Z,20.50
2022-08-22T07:58:29.602Z,20.46
2022-08-22T07:59:29.600Z,20.42
2022-08-22T08:00:29.634Z,20.46
2022-08-22T08:01:29.647Z,20.48
2022-08-22T08:02:29.561Z,20.53
2022-08-22T08:03:29.608Z,20.50
2022-08-22T08:04:29.539Z,20.58
2022-08-22T08:05:29.532Z,20.60
2022-08-22T08:06:29.552Z,20.64
2022-08-22T08:07:29.510Z,20.68
2022-08-22T08:08:29.484Z,20.68
2022-08-22T08:09:29.480Z,20.71
2022-08-22T08:10:29.467Z,20.74
2022-08-22T08:11:29.717Z,20.83
2022-08-22T08:12:29.493Z,20.85
2022-08-22T08:13:29.435Z,20.83
2022-08-22T08:14:29.425Z,20.90
2022-08-22T08:15:29.418Z,20.95
2022-08-22T08:16:29.402Z,21.01
2022-08-22T08:17:32.162Z,20.95
2022-08-22T08:18:29.407Z,20.96
2022-08-22T08:19:29.370Z,20.96
2022-08-22T08:20:29.351Z,21.01
2022-08-22T08:21:29.360Z,21.05
2022-08-22T08:22:29.336Z,21.08
2022-08-22T08:23:29.329Z,21.07
2022-08-22T08:24:29.362Z,21.07
2022-08-22T08:25:29.303Z,21.04
2022-08-22T08:26:29.300Z,21.00
2022-08-22T08:27:29.283Z,20.98
2022-08-22T08:28:29.265Z,21.00
2022-08-22T08:29:29.255Z,21.04
2022-08-22T08:30:29.268Z,21.07
2022-08-22T08:31:29.224Z,21.07
2022-08-22T08:32:29.261Z,21.10
2022-08-22T08:33:29.209Z,21.11
2022-08-22T08:34:29.186Z,21.17
2022-08-22T08:35:29.178Z,21.26
2022-08-22T08:36:29.217Z,21.32
2022-08-22T08:37:29.158Z,21.45
2022-08-22T08:38:29.151Z,21.50
2022-08-22T08:39:35.231Z,21.53
2022-08-22T08:40:29.135Z,21.47
2022-08-22T08:41:29.125Z,21.44
2022-08-22T08:42:29.177Z,21.41
2022-08-22T08:43:29.095Z,21.43
2022-08-22T08:44:29.085Z,21.44
2022-08-22T08:45:29.129Z,21.37
2022-08-22T08:46:29.054Z,21.35
2022-08-22T08:47:29.127Z,21.48
2022-08-22T08:48:29.080Z,21.59
2022-08-22T08:49:29.020Z,21.70
2022-08-22T08:50:29.024Z,21.78
2022-08-22T08:51:29.013Z,21.81
2022-08-22T08:52:28.987Z,21.89
2022-08-22T08:53:28.976Z,21.92
2022-08-22T08:54:29.541Z,21.88
2022-08-22T08:55:28.957Z,21.81
2022-08-22T08:56:29.012Z,21.75
2022-08-22T08:57:29.024Z,21.78
2022-08-22T08:58:28.925Z,21.80
2022-08-22T08:59:28.913Z,21.84
2022-08-22T09:00:30.374Z,21.89
2022-08-22T09:01:28.929Z,21.88
2022-08-22T09:02:34.984Z,21.94
2022-08-22T09:03:31.111Z,22.03
2022-08-22T09:04:28.912Z,22.14
2022-08-22T09:05:28.843Z,22.25
2022-08-22T09:06:29.488Z,22.30
2022-08-22T09:07:29.769Z,22.36
2022-08-22T09:08:28.805Z,22.58
2022-08-22T09:09:28.797Z,22.76
2022-08-22T09:40:29.919Z,23.10
2022-08-22T09:40:34.884Z,23.18
2022-08-22T09:41:34.880Z,23.18
2022-08-22T09:42:34.867Z,23.06
2022-08-22T09:43:34.856Z,22.95
2022-08-22T09:44:34.874Z,22.91
2022-08-22T09:45:35.015Z,22.92
2022-08-22T09:46:36.958Z,22.83
2022-08-22T09:47:34.832Z,22.81
2022-08-22T09:48:34.792Z,22.76
2022-08-22T09:49:34.783Z,22.78
2022-08-22T09:50:34.782Z,22.80
2022-08-22T09:51:34.834Z,22.77
2022-08-22T09:52:36.924Z,22.76
2022-08-22T09:53:34.747Z,22.70
2022-08-22T09:54:34.725Z,22.67
2022-08-22T09:55:35.434Z,22.74
2022-08-22T09:56:34.720Z,22.78
2022-08-22T09:57:34.758Z,22.83
2022-08-22T09:58:37.699Z,22.80
2022-08-22T09:59:34.737Z,22.76
2022-08-22T10:00:34.687Z,22.74
2022-08-22T10:01:34.707Z,22.78
2022-08-22T10:02:34.646Z,22.88
2022-08-22T10:03:34.817Z,22.88
2022-08-22T10:04:34.612Z,22.92
2022-08-22T10:05:40.592Z,22.93
2022-08-22T10:06:34.640Z,22.81
2022-08-22T10:07:34.887Z,22.74
2022-08-22T10:08:34.614Z,22.73
2022-08-22T10:09:34.616Z,22.77
2022-08-22T10:10:34.596Z,22.77
2022-08-22T10:11:34.578Z,22.88
2022-08-22T10:12:36.016Z,22.93
2022-08-22T10:13:34.510Z,22.96
2022-08-22T10:14:34.528Z,23.02
2022-08-22T10:15:34.530Z,23.01
2022-08-22T10:16:34.488Z,23.01
2022-08-22T10:17:34.488Z,23.04
2022-08-22T10:18:34.469Z,23.11
2022-08-22T10:19:34.463Z,23.21
2022-08-22T10:20:34.445Z,23.26
2022-08-22T10:21:35.808Z,23.28
2022-08-22T10:22:34.421Z,23.18
2022-08-22T10:23:34.405Z,23.17
2022-08-22T10:24:36.019Z,23.18
2022-08-22T10:25:34.413Z,23.17
2022-08-22T10:26:38.620Z,23.18
2022-08-22T10:27:34.407Z,23.21
2022-08-22T10:28:34.350Z,23.25
2022-08-22T10:29:34.345Z,23.26
2022-08-22T10:30:34.320Z,23.32
2022-08-22T10:31:34.311Z,23.33
2022-08-22T10:32:34.316Z,23.36
2022-08-22T10:33:34.325Z,23.40
2022-08-22T10:34:34.284Z,23.37
2022-08-22T10:35:34.386Z,23.42
2022-08-22T10:36:34.307Z,23.42
2022-08-22T10:37:34.274Z,23.44
2022-08-22T10:38:34.350Z,23.39
2022-08-22T10:39:34.304Z,23.37
2022-08-22T10:40:34.218Z,23.37
2022-08-22T10:41:34.212Z,23.39
2022-08-22T10:42:35.265Z,23.18
2022-08-22T10:43:34.266Z,23.08
2022-08-22T10:44:34.188Z,23.02
2022-08-22T10:45:36.298Z,23.01
2022-08-22T10:46:34.144Z,23.11
2022-08-22T10:47:34.190Z,23.33
2022-08-22T10:48:34.123Z,23.40
2022-08-22T10:49:34.146Z,23.42
2022-08-22T10:50:34.109Z,23.44
2022-08-22T10:51:34.169Z,23.32
2022-08-22T10:52:34.117Z,23.36
2022-08-22T10:53:34.818Z,23.33
2022-08-22T10:54:34.211Z,23.34
2022-08-22T10:55:34.066Z,23.33
2022-08-22T10:56:34.782Z,23.34
2022-08-22T10:57:34.136Z,23.34
2022-08-22T10:58:34.070Z,23.37
2022-08-22T10:59:34.010Z,23.44
2022-08-22T11:00:34.042Z,23.52
2022-08-22T11:01:38.368Z,23.54
2022-08-22T11:02:34.105Z,23.49
2022-08-22T11:03:34.196Z,23.40
2022-08-22T11:04:34.019Z,23.40
2022-08-22T11:05:33.940Z,23.40
2022-08-22T11:06:33.931Z,23.37
2022-08-22T11:07:33.916Z,23.45
2022-08-22T11:08:34.875Z,23.39
2022-08-22T11:09:37.135Z,23.32
2022-08-22T11:10:34.959Z,23.29
2022-08-22T11:11:33.872Z,23.36
2022-08-22T11:12:35.791Z,23.55
2022-08-22T11:13:33.960Z,23.73
2022-08-22T11:14:34.781Z,23.84
2022-08-22T11:15:34.907Z,23.79
2022-08-22T11:16:36.573Z,23.77
2022-08-22T11:17:40.737Z,23.76
2022-08-22T11:18:33.908Z,23.77
2022-08-22T11:19:33.914Z,23.71
2022-08-22T11:20:33.773Z,23.62
2022-08-22T11:21:33.794Z,23.49
2022-08-22T11:22:33.757Z,23.47
2022-08-22T11:23:33.831Z,23.37
2022-08-22T11:24:35.665Z,23.28
2022-08-22T11:25:38.626Z,23.16
2022-08-22T11:26:41.705Z,23.18
2022-08-22T11:27:37.748Z,23.25
2022-08-22T11:28:33.747Z,23.32
2022-08-22T11:29:33.674Z,23.36
2022-08-22T11:30:36.343Z,23.34
2022-08-22T11:31:36.651Z,23.39
2022-08-22T11:32:33.906Z,23.40
2022-08-22T11:33:46.717Z,23.37
2022-08-22T11:34:33.626Z,23.33
2022-08-22T11:35:33.607Z,23.28
2022-08-22T11:36:34.292Z,23.33
2022-08-22T11:37:42.879Z,23.34
2022-08-22T11:38:36.211Z,23.36
2022-08-22T11:39:34.074Z,23.40
2022-08-22T11:40:34.352Z,23.39
2022-08-22T11:41:33.733Z,23.40
2022-08-22T11:42:33.667Z,23.48
2022-08-22T11:43:33.968Z,23.54
2022-08-22T11:44:34.340Z,23.55
2022-08-22T11:45:34.000Z,23.51
2022-08-22T11:46:33.842Z,23.52
2022-08-22T11:47:33.854Z,23.62
2022-08-22T11:48:33.727Z,23.76
2022-08-22T11:49:34.471Z,23.82
2022-08-22T11:50:33.569Z,23.85
2022-08-22T11:51:34.132Z,24.00
2022-08-22T11:52:33.675Z,23.88
2022-08-22T11:53:33.824Z,23.92
2022-08-22T11:54:33.781Z,23.85
2022-08-22T11:55:34.561Z,23.77
2022-08-22T11:56:33.801Z,23.74
2022-08-22T11:57:33.906Z,23.71
2022-08-22T11:58:33.662Z,23.71
2022-08-22T11:59:33.625Z,23.77
2022-08-22T12:00:33.730Z,23.82
2022-08-22T12:01:34.429Z,23.84
2022-08-22T12:02:33.764Z,23.69
2022-08-22T12:03:33.783Z,23.55
2022-08-22T12:04:33.662Z,23.51
2022-08-22T12:05:34.471Z,23.52
2022-08-22T12:06:34.675Z,23.54
2022-08-22T12:07:33.368Z,23.56
2022-08-22T12:08:33.631Z,23.51
2022-08-22T12:09:33.840Z,23.45
2022-08-22T12:10:33.729Z,23.45
2022-08-22T12:11:33.757Z,23.55
2022-08-22T12:12:33.664Z,23.56
2022-08-22T12:13:34.737Z,23.37
2022-08-22T12:14:33.414Z,23.25
2022-08-22T12:15:33.753Z,23.21
2022-08-22T12:16:33.511Z,23.29
2022-08-22T12:17:55.576Z,23.26
2022-08-22T12:18:33.240Z,23.36
2022-08-22T12:19:33.271Z,23.36
2022-08-22T12:20:33.577Z,23.32
2022-08-22T12:21:33.502Z,23.34
2022-08-22T12:22:33.563Z,23.39
2022-08-22T12:23:43.407Z,23.25
2022-08-22T12:24:33.356Z,23.26
2022-08-22T12:25:33.124Z,23.13
2022-08-22T12:26:34.965Z,23.17
2022-08-22T12:27:33.132Z,23.34
2022-08-22T12:28:39.107Z,23.47
2022-08-22T12:29:34.068Z,23.45
2022-08-22T12:30:33.018Z,23.40
2022-08-22T12:31:33.047Z,23.49
2022-08-22T12:32:34.152Z,23.58
2022-08-22T12:33:33.217Z,23.94
2022-08-22T12:34:32.950Z,24.22
2022-08-22T12:35:33.034Z,24.59
2022-08-22T12:36:33.287Z,24.85
2022-08-22T12:37:33.116Z,25.25
2022-08-22T12:38:37.993Z,26.13
2022-08-22T12:39:32.953Z,26.56
2022-08-22T12:40:33.381Z,27.15
2022-08-22T12:41:34.714Z,27.33
2022-08-22T12:42:34.014Z,27.11
2022-08-22T12:43:32.896Z,27.45
2022-08-22T12:44:33.636Z,28.03
2022-08-22T12:45:33.152Z,28.15
2022-08-22T12:46:33.150Z,28.22
2022-08-22T12:47:34.303Z,28.80
2022-08-22T12:48:32.871Z,29.09
2022-08-22T12:49:32.786Z,29.15
2022-08-22T12:50:33.838Z,28.96
2022-08-22T12:51:33.814Z,29.18
2022-08-22T12:52:33.219Z,28.82
2022-08-22T12:53:32.758Z,28.12
2022-08-22T12:54:33.024Z,28.20
2022-08-22T12:55:33.039Z,28.22
2022-08-22T12:56:32.969Z,27.61
2022-08-22T12:57:33.951Z,27.13
2022-08-22T12:58:35.617Z,26.85
2022-08-22T12:59:32.999Z,26.68
2022-08-22T13:00:32.725Z,26.78
2022-08-22T13:01:34.576Z,27.61
2022-08-22T13:02:33.106Z,28.15
2022-08-22T13:03:33.066Z,28.93
2022-08-22T13:04:34.221Z,29.43
2022-08-22T13:05:40.409Z,30.31
2022-08-22T13:06:32.891Z,30.92
2022-08-22T13:07:33.044Z,31.41
2022-08-22T13:08:32.871Z,31.52
2022-08-22T13:09:33.043Z,31.87
2022-08-22T13:10:33.105Z,31.57
2022-08-22T13:11:32.633Z,31.87
2022-08-22T13:12:32.703Z,32.08
2022-08-22T13:13:37.224Z,32.08
2022-08-22T13:14:32.721Z,31.74
2022-08-22T13:15:32.826Z,31.57
2022-08-22T13:16:32.838Z,31.37
2022-08-22T13:17:32.885Z,31.60
2022-08-22T13:18:32.785Z,32.09
2022-08-22T13:19:33.100Z,32.61
2022-08-22T13:20:32.898Z,32.88
2022-08-22T13:21:34.959Z,33.61
2022-08-22T13:22:32.683Z,33.66
2022-08-22T13:23:32.917Z,33.84
2022-08-22T13:24:38.817Z,34.04
2022-08-22T13:25:32.869Z,34.07